Terminal Aerodrome Forecast
Issued by NWS Boston, MA

Home | Current Version | Previous Version | Text Only | Print | Product List | Glossary On
Versions: 1 2 3 4 5 6 7 8 9 10 11 12 13 14 15 16 17 18 19 20 21 22 23 24 25 26 27 28 29 30 31 32 33 34 35 36
000
FTUS41 KBOX 261129
TAFORH
TAF
KORH 261129Z 2612/2712 32005KT P6SM FEW250
     FM261900 21006KT P6SM FEW250
     FM270400 20007KT P6SM VCSH SCT080
     FM270500 20007KT P6SM VCSH BKN060
     FM270600 20006KT P6SM -RA OVC060
     FM270800 20006KT P6SM -RA OVC030
     FM270900 20006KT P6SM -RA OVC015
     FM271100 24007KT 3SM BR VCSH OVC008=

USA.gov is the U.S. government's official web portal to all federal, state and local government web resources and services.